Time;durP1;ratioP1;P1;durP2;ratioP2;P2;SDS_P1;SDS_P2;PMS_P1;PMS_P2;Temp;Humidity;BMP_temperature;BMP_pressure;BME280_temperature;BME280_humidity;BME280_pressure;Samples;Min_cycle;Max_cycle;Signal;HPM_P1;HPM_P2
2022/10/19 00:00:44;;;;;;;;;9.00;9.00;;;;;17.07;88.56;101715.34;5018141;28;45490;-59
2022/10/19 00:03:10;;;;;;;;;13.33;9.33;;;;;17.08;88.56;101722.44;5017113;28;45642;-59
2022/10/19 00:05:35;;;;;;;;;12.33;10.67;;;;;17.09;88.35;101721.47;5029111;28;46058;-57
2022/10/19 00:08:01;;;;;;;;;10.67;10.67;;;;;16.93;88.23;101691.19;5015496;28;45685;-58
2022/10/19 00:10:27;;;;;;;;;11.33;11.33;;;;;17.08;88.65;101711.69;5015427;28;45442;-60
2022/10/19 00:12:52;;;;;;;;;9.67;9.67;;;;;17.01;88.56;101701.44;5021047;28;45447;-58
2022/10/19 00:15:18;;;;;;;;;11.67;9.00;;;;;16.98;88.84;101693.56;5042459;28;46601;-59
2022/10/19 00:17:44;;;;;;;;;9.67;9.67;;;;;16.95;88.35;101691.09;5018202;28;45390;-58
2022/10/19 00:20:10;;;;;;;;;12.33;10.33;;;;;16.99;88.71;101706.03;5021636;28;45422;-59
2022/10/19 00:22:35;;;;;;;;;11.33;9.33;;;;;16.99;88.63;101701.53;5034684;28;45623;-58
2022/10/19 00:25:01;;;;;;;;;12.00;9.67;;;;;16.97;88.52;101690.03;5017227;28;47805;-60
2022/10/19 00:27:26;;;;;;;;;10.33;9.00;;;;;16.96;88.41;101693.69;5015636;28;45569;-59
2022/10/19 00:29:52;;;;;;;;;11.33;9.00;;;;;16.97;88.39;101695.41;5014392;28;45346;-57
2022/10/19 00:32:18;;;;;;;;;11.00;11.00;;;;;16.94;88.12;101684.88;5029377;28;45438;-59
2022/10/19 00:34:43;;;;;;;;;11.00;11.00;;;;;16.95;88.16;101691.09;5017580;28;46530;-59
2022/10/19 00:37:09;;;;;;;;;12.00;9.67;;;;;16.91;88.11;101685.03;5019223;28;45343;-57
2022/10/19 00:39:34;;;;;;;;;13.33;9.67;;;;;16.92;88.35;101680.53;5019198;28;46994;-57
2022/10/19 00:41:59;;;;;;;;;8.00;8.00;;;;;16.88;88.49;101674.50;5016194;28;45443;-58
2022/10/19 00:44:28;;;;;;;;;9.00;9.00;;;;;16.87;88.42;101667.41;5015932;28;45424;-58
2022/10/19 00:46:58;;;;;;;;;7.00;7.00;;;;;16.88;88.05;101663.75;5015548;28;46885;-56
2022/10/19 00:49:32;;;;;;;;;9.67;9.00;;;;;16.83;88.16;101663.19;5007531;28;45441;-58
2022/10/19 00:52:03;;;;;;;;;10.67;9.00;;;;;16.81;88.46;101667.81;5016994;28;45336;-58
2022/10/19 00:54:31;;;;;;;;;7.67;7.67;;;;;16.71;88.69;101661.31;5020063;28;45483;-59
2022/10/19 00:56:57;;;;;;;;;8.33;8.33;;;;;16.77;88.58;101655.53;5016959;28;45458;-56
2022/10/19 00:59:25;;;;;;;;;10.00;8.33;;;;;16.72;88.75;101654.97;5016263;28;45462;-57
2022/10/19 01:01:51;;;;;;;;;10.67;10.33;;;;;16.70;88.48;101665.81;5032412;28;45520;-56
2022/10/19 01:04:20;;;;;;;;;9.33;8.00;;;;;16.69;88.56;101658.72;5021737;28;46354;-57
2022/10/19 01:06:46;;;;;;;;;9.33;9.33;;;;;16.57;88.76;101647.88;5030306;28;45455;-57
2022/10/19 01:09:12;;;;;;;;;9.00;9.00;;;;;16.60;88.87;101650.34;5018970;28;45415;-58
2022/10/19 01:12:09;;;;;;;;;9.67;7.00;;;;;16.57;89.27;101653.25;5022163;28;45403;-56
2022/10/19 01:14:38;;;;;;;;;8.00;8.00;;;;;16.55;89.31;101649.81;5016338;28;45437;-57
2022/10/19 01:17:20;;;;;;;;;11.33;8.33;;;;;16.52;89.92;101646.31;5014820;28;45462;-57
2022/10/19 01:19:58;;;;;;;;;10.00;10.00;;;;;16.53;89.25;101656.09;5016764;28;45354;-58
2022/10/19 01:22:51;;;;;;;;;9.00;8.00;;;;;16.51;89.45;101654.47;5019293;28;45536;-59
2022/10/19 01:25:20;;;;;;;;;11.33;8.00;;;;;16.50;89.71;101647.41;5019455;28;46159;-58
2022/10/19 01:28:01;;;;;;;;;10.33;8.00;;;;;16.40;89.44;101631.00;5016235;28;45245;-57
2022/10/19 01:30:43;;;;;;;;;8.00;8.00;;;;;16.45;89.69;101642.34;5013782;28;45518;-58
2022/10/19 01:33:27;;;;;;;;;8.33;8.33;;;;;16.45;89.41;101641.47;5014508;28;45462;-59
2022/10/19 01:36:17;;;;;;;;;11.00;8.67;;;;;16.45;89.38;101644.16;5018571;28;47222;-57
2022/10/19 01:39:00;;;;;;;;;11.00;9.33;;;;;16.38;89.61;101638.28;5025962;28;45395;-56
2022/10/19 01:41:50;;;;;;;;;11.33;7.33;;;;;16.39;89.86;101637.34;5014857;28;45387;-57
2022/10/19 01:44:24;;;;;;;;;10.33;9.67;;;;;16.37;90.04;101636.56;5026902;28;45538;-57
2022/10/19 01:46:59;;;;;;;;;8.67;6.00;;;;;16.31;90.08;101628.94;5017676;28;46344;-56
2022/10/19 01:49:34;;;;;;;;;12.33;7.67;;;;;16.32;90.15;101640.53;5026784;28;45316;-58
2022/10/19 01:52:05;;;;;;;;;11.00;8.00;;;;;16.32;90.00;101638.69;5036261;28;45292;-60
2022/10/19 01:54:38;;;;;;;;;8.67;8.67;;;;;16.33;89.97;101640.41;5039343;28;45306;-57
2022/10/19 01:57:08;;;;;;;;;8.33;8.33;;;;;16.32;89.80;101625.28;5014822;28;46155;-60
2022/10/19 01:59:35;;;;;;;;;8.67;7.67;;;;;16.32;89.72;101627.09;5022015;28;45312;-58
2022/10/19 02:02:03;;;;;;;;;12.33;8.67;;;;;16.32;89.72;101616.38;5015968;28;45344;-58
2022/10/19 02:04:30;;;;;;;;;11.00;9.67;;;;;16.30;89.63;101612.91;5014198;28;45522;-58
2022/10/19 02:06:56;;;;;;;;;9.67;7.00;;;;;16.22;89.81;101590.09;5013885;28;45448;-58
2022/10/19 02:09:22;;;;;;;;;11.00;8.00;;;;;16.23;89.73;101597.19;5013968;28;45655;-60
2022/10/19 02:11:55;;;;;;;;;10.00;7.67;;;;;16.26;89.74;101598.81;5031177;28;45447;-56
2022/10/19 02:14:26;;;;;;;;;5.33;5.33;;;;;16.26;89.98;101595.25;5030584;27;45201;-58
2022/10/19 02:16:56;;;;;;;;;9.67;5.67;;;;;16.23;89.83;101591.81;5023453;28;47058;-58
2022/10/19 02:19:22;;;;;;;;;11.33;9.67;;;;;16.21;89.65;101579.47;5015219;28;45322;-59
2022/10/19 02:21:49;;;;;;;;;5.67;4.33;;;;;16.25;89.45;101583.66;5013234;28;45489;-58
2022/10/19 02:24:14;;;;;;;;;5.00;5.00;;;;;16.26;89.42;101584.53;5017206;28;45351;-58
2022/10/19 02:26:40;;;;;;;;;7.33;7.00;;;;;16.27;89.32;101576.38;5030432;28;45422;-59
2022/10/19 02:29:07;;;;;;;;;13.33;10.67;;;;;16.25;89.37;101574.75;5022958;28;45427;-59
2022/10/19 02:31:33;;;;;;;;;7.00;7.00;;;;;16.23;89.22;101570.34;5014593;28;45519;-58
2022/10/19 02:33:59;;;;;;;;;7.67;7.67;;;;;16.21;89.54;101563.38;5014928;28;45615;-59
2022/10/19 02:36:24;;;;;;;;;9.33;6.33;;;;;16.19;89.63;101567.97;5013945;28;46205;-58
2022/10/19 02:38:50;;;;;;;;;7.00;6.00;;;;;16.19;90.11;101562.59;5014693;28;45486;-59
2022/10/19 02:41:41;;;;;;;;;8.33;6.33;;;;;16.19;89.96;101563.47;5014084;28;45530;-59
2022/10/19 02:44:17;;;;;;;;;11.00;7.00;;;;;16.11;89.92;101546.13;5020913;28;45404;-58
2022/10/19 02:47:05;;;;;;;;;10.67;8.00;;;;;16.17;89.88;101556.47;4998889;28;46442;-59
2022/10/19 02:49:34;;;;;;;;;8.33;8.33;;;;;16.10;90.01;101541.72;5023225;28;45469;-59
2022/10/19 02:52:07;;;;;;;;;7.00;7.00;;;;;16.16;90.12;101547.56;5016621;28;45471;-55
2022/10/19 02:54:34;;;;;;;;;6.67;4.67;;;;;16.14;90.44;101543.22;5021859;28;45420;-55
2022/10/19 02:56:59;;;;;;;;;10.67;10.67;;;;;16.17;90.20;101540.38;5018539;28;45937;-56
2022/10/19 02:59:25;;;;;;;;;8.00;7.00;;;;;16.11;90.31;101519.28;5021200;28;45494;-58
2022/10/19 03:01:50;;;;;;;;;8.00;7.67;;;;;16.18;90.26;101532.22;5022607;28;45249;-57
2022/10/19 03:04:16;;;;;;;;;8.67;7.00;;;;;16.16;90.25;101519.88;5016635;28;45486;-58
2022/10/19 03:06:42;;;;;;;;;11.00;9.33;;;;;16.10;90.16;101522.94;5017498;28;45492;-58
2022/10/19 03:09:07;;;;;;;;;10.33;7.00;;;;;16.14;90.37;101527.13;5017679;28;46006;-57
2022/10/19 03:11:33;;;;;;;;;6.00;6.00;;;;;16.15;90.41;101526.19;5017845;28;45378;-61
2022/10/19 03:13:58;;;;;;;;;7.00;7.00;;;;;16.07;90.35;101512.41;5018384;28;45288;-58
2022/10/19 03:16:24;;;;;;;;;7.00;7.00;;;;;16.20;89.97;101526.75;5022974;28;45996;-56
2022/10/19 03:18:50;;;;;;;;;8.00;8.00;;;;;16.17;90.27;101516.22;5016068;28;46799;-59
2022/10/19 03:21:16;;;;;;;;;8.00;6.33;;;;;16.20;90.44;101526.75;5018233;28;45380;-57
2022/10/19 03:23:41;;;;;;;;;11.00;7.67;;;;;16.18;90.95;101516.13;5021494;28;45548;-58
2022/10/19 03:26:11;;;;;;;;;7.67;7.67;;;;;16.19;90.55;101525.03;5034419;28;45379;-57
2022/10/19 03:28:36;;;;;;;;;9.33;5.33;;;;;16.14;90.65;101516.41;5031734;28;47060;-57
2022/10/19 03:31:01;;;;;;;;;9.67;7.00;;;;;16.20;90.46;101518.69;5016433;28;45525;-57
2022/10/19 03:33:27;;;;;;;;;9.67;9.67;;;;;16.16;90.42;101512.69;5029336;28;45410;-59
2022/10/19 03:36:14;;;;;;;;;7.67;7.67;;;;;16.16;90.39;101509.13;5020996;28;45418;-57
2022/10/19 03:38:40;;;;;;;;;14.33;8.33;;;;;16.07;90.18;101497.16;5016386;28;45748;-59
2022/10/19 03:41:06;;;;;;;;;8.33;8.33;;;;;16.11;91.07;101508.56;5019918;28;45656;-58
2022/10/19 03:43:31;;;;;;;;;10.00;8.33;;;;;16.05;90.94;101506.28;5021214;28;45638;-57
2022/10/19 03:45:57;;;;;;;;;10.67;7.00;;;;;16.12;90.67;101502.22;5018362;28;46078;-58
2022/10/19 03:48:22;;;;;;;;;9.33;9.33;;;;;16.09;90.60;101494.38;5029914;28;45374;-59
2022/10/19 03:50:47;;;;;;;;;8.33;8.33;;;;;16.14;90.17;101501.16;5030539;28;45702;-59
2022/10/19 03:53:16;;;;;;;;;7.00;7.00;;;;;16.15;90.45;101502.03;5034121;28;45267;-59
2022/10/19 03:55:41;;;;;;;;;13.00;8.67;;;;;16.09;90.65;101489.00;5017758;28;46655;-59
2022/10/19 03:58:07;;;;;;;;;13.00;8.00;;;;;16.10;90.33;101504.16;5018167;28;45449;-58
2022/10/19 04:00:32;;;;;;;;;11.00;8.67;;;;;16.08;90.56;101498.03;5017143;28;45505;-60
2022/10/19 04:02:57;;;;;;;;;10.33;7.00;;;;;16.01;90.42;101477.91;5017998;28;45685;-58
2022/10/19 04:05:23;;;;;;;;;8.33;8.33;;;;;16.07;90.63;101493.63;5022210;28;46068;-59
2022/10/19 04:07:48;;;;;;;;;8.33;8.33;;;;;16.07;89.96;101499.84;5035687;28;45374;-58
2022/10/19 04:10:13;;;;;;;;;9.67;7.67;;;;;16.07;90.37;101494.47;5017202;28;45463;-58
2022/10/19 04:12:39;;;;;;;;;11.00;9.33;;;;;16.00;90.58;101486.91;5032346;28;45564;-60
2022/10/19 04:15:04;;;;;;;;;11.00;9.67;;;;;15.99;90.76;101485.19;5015356;28;48539;-57
2022/10/19 04:17:30;;;;;;;;;10.33;10.33;;;;;15.97;90.89;101493.34;5014569;28;45554;-57
2022/10/19 04:19:55;;;;;;;;;6.67;6.67;;;;;15.99;90.80;101482.50;5015360;28;45530;-56
2022/10/19 04:22:21;;;;;;;;;11.00;9.33;;;;;15.93;90.46;101473.91;5037152;28;45375;-58
2022/10/19 04:24:46;;;;;;;;;10.67;7.67;;;;;16.01;90.73;101488.63;5022364;28;46436;-58
2022/10/19 04:27:11;;;;;;;;;7.67;5.33;;;;;15.96;90.77;101482.72;5026140;28;45257;-59
2022/10/19 04:29:37;;;;;;;;;10.00;10.00;;;;;15.96;90.73;101478.22;5019377;28;45479;-56
2022/10/19 04:32:02;;;;;;;;;7.33;7.00;;;;;16.02;91.42;101490.38;5017256;28;45312;-58
2022/10/19 04:34:27;;;;;;;;;9.67;8.33;;;;;15.98;91.12;101483.47;5017867;28;46328;-58
2022/10/19 04:36:53;;;;;;;;;6.67;6.67;;;;;15.99;91.27;101493.25;5029864;28;45447;-57
2022/10/19 04:39:18;;;;;;;;;10.00;9.33;;;;;15.97;91.39;101492.47;5022070;28;45371;-58
2022/10/19 04:41:44;;;;;;;;;10.67;10.67;;;;;15.96;91.54;101496.13;5039187;28;45628;-58
2022/10/19 04:44:09;;;;;;;;;10.33;7.00;;;;;15.92;91.64;101490.97;5020862;28;45620;-56
2022/10/19 04:46:35;;;;;;;;;10.33;10.00;;;;;15.97;91.61;101487.13;5016039;28;48516;-58
2022/10/19 04:49:03;;;;;;;;;12.00;10.67;;;;;15.96;91.74;101485.41;5015572;28;45493;-57
2022/10/19 04:51:28;;;;;;;;;14.00;12.33;;;;;15.96;91.81;101485.41;5017805;28;46028;-59
2022/10/19 04:53:57;;;;;;;;;10.67;8.33;;;;;15.98;91.71;101478.09;5019258;28;45791;-59
2022/10/19 04:56:27;;;;;;;;;11.00;9.67;;;;;15.98;91.70;101478.09;5026502;28;45411;-59
2022/10/19 04:58:56;;;;;;;;;14.33;10.67;;;;;16.00;91.68;101470.81;5016249;28;45524;-57
2022/10/19 05:01:24;;;;;;;;;12.00;9.67;;;;;15.96;91.78;101463.94;5018842;28;45464;-59
2022/10/19 05:03:55;;;;;;;;;11.00;8.67;;;;;15.97;91.76;101462.97;5026694;28;45461;-58
2022/10/19 05:06:20;;;;;;;;;6.67;6.67;;;;;15.95;91.81;101452.34;5024404;28;45462;-59
2022/10/19 05:08:49;;;;;;;;;10.33;10.33;;;;;15.93;91.75;101444.41;5027790;28;45473;-59
2022/10/19 05:11:15;;;;;;;;;11.67;10.00;;;;;15.91;91.48;101438.28;5025044;28;45661;-56
2022/10/19 05:13:41;;;;;;;;;11.00;11.00;;;;;15.93;91.50;101438.16;5018736;28;45422;-56
2022/10/19 05:16:11;;;;;;;;;14.67;11.67;;;;;15.88;91.64;101435.75;5016221;28;45354;-57
2022/10/19 05:18:37;;;;;;;;;12.67;10.67;;;;;15.87;91.56;101438.56;5037313;28;45433;-57
2022/10/19 05:21:13;;;;;;;;;10.67;8.33;;;;;15.81;91.38;101429.09;5015786;28;45334;-58
2022/10/19 05:23:39;;;;;;;;;10.67;10.67;;;;;15.86;91.47;101437.69;5032721;28;48117;-58
2022/10/19 05:26:16;;;;;;;;;14.00;13.67;;;;;15.84;91.91;101434.25;5016262;28;45427;-56
2022/10/19 05:28:46;;;;;;;;;14.33;12.00;;;;;15.85;91.47;101440.47;5019193;28;45505;-57
2022/10/19 05:31:14;;;;;;;;;12.33;12.33;;;;;15.86;91.32;101437.69;5016942;28;45326;-60
2022/10/19 05:33:40;;;;;;;;;12.33;12.33;;;;;15.87;91.38;101441.22;5017894;28;46267;-55
2022/10/19 05:36:15;;;;;;;;;11.67;11.33;;;;;15.82;91.65;101419.22;5025240;28;45443;-56
2022/10/19 05:38:42;;;;;;;;;8.33;8.33;;;;;15.87;91.74;101428.69;5015449;28;45449;-56
2022/10/19 05:41:07;;;;;;;;;11.00;10.00;;;;;15.84;91.82;101422.66;5010164;28;45552;-56
2022/10/19 05:43:32;;;;;;;;;12.00;9.67;;;;;15.84;91.69;101415.47;5015070;28;46368;-56
2022/10/19 05:46:05;;;;;;;;;17.33;12.67;;;;;15.86;91.76;101415.38;5014911;28;45734;-58
2022/10/19 05:48:32;;;;;;;;;11.33;10.67;;;;;15.88;91.93;101408.94;5019508;28;45469;-57
2022/10/19 05:50:59;;;;;;;;;14.33;12.67;;;;;15.78;91.69;101390.91;5012895;28;45651;-59
2022/10/19 05:53:24;;;;;;;;;13.00;12.33;;;;;15.84;91.43;101396.69;5021092;28;46253;-59
2022/10/19 05:55:49;;;;;;;;;12.67;12.67;;;;;15.85;91.55;101400.25;5015867;28;45435;-61
2022/10/19 05:58:15;;;;;;;;;12.00;12.00;;;;;15.86;91.57;101405.50;5016109;28;45402;-60
2022/10/19 06:00:40;;;;;;;;;14.67;13.00;;;;;15.88;91.50;101405.41;5015330;28;45521;-61
2022/10/19 06:03:06;;;;;;;;;11.33;11.00;;;;;15.87;91.31;101409.03;5020950;28;46614;-58
2022/10/19 06:05:31;;;;;;;;;14.67;12.00;;;;;15.83;91.18;101403.03;5025499;28;45406;-60
2022/10/19 06:07:56;;;;;;;;;15.00;15.00;;;;;15.83;91.26;101402.16;5036334;28;45265;-60
2022/10/19 06:10:22;;;;;;;;;12.00;12.00;;;;;15.76;91.32;101398.19;5037162;28;45689;-58
2022/10/19 06:12:48;;;;;;;;;12.00;12.00;;;;;15.80;91.37;101413.97;5033379;28;46052;-61
2022/10/19 06:15:13;;;;;;;;;12.33;12.33;;;;;15.84;91.08;101426.22;5034796;28;45620;-59
2022/10/19 06:17:39;;;;;;;;;15.00;14.67;;;;;15.87;90.99;101428.69;5036204;28;45327;-57
2022/10/19 06:20:05;;;;;;;;;11.00;11.00;;;;;15.85;91.06;101413.66;5039984;28;45472;-59
2022/10/19 06:22:30;;;;;;;;;14.00;13.00;;;;;15.86;91.01;101426.09;5036356;28;47545;-59
2022/10/19 06:24:56;;;;;;;;;15.67;15.00;;;;;15.84;90.89;101415.47;5038859;28;45510;-60
2022/10/19 06:27:21;;;;;;;;;15.33;13.67;;;;;15.85;90.75;101417.19;5037028;28;45438;-59
2022/10/19 06:29:47;;;;;;;;;16.33;14.33;;;;;15.81;91.00;101407.63;5021243;28;45678;-56
2022/10/19 06:32:12;;;;;;;;;13.00;11.67;;;;;15.80;90.80;101405.06;5019020;28;45474;-60
2022/10/19 06:34:38;;;;;;;;;14.67;12.00;;;;;15.88;90.82;101421.50;5018366;28;45383;-60
2022/10/19 06:37:03;;;;;;;;;15.33;14.00;;;;;15.89;90.63;101416.06;5018238;28;45683;-58
2022/10/19 06:39:28;;;;;;;;;16.33;15.00;;;;;15.92;90.40;101420.34;5019069;28;45362;-62
2022/10/19 06:41:54;;;;;;;;;13.00;12.00;;;;;15.92;90.67;101426.59;5018878;28;45375;-58
2022/10/19 06:44:19;;;;;;;;;18.67;14.33;;;;;15.93;90.15;101419.38;5019083;28;45344;-59
2022/10/19 06:46:45;;;;;;;;;11.00;11.00;;;;;15.92;90.45;101415.00;5018300;28;45371;-58
2022/10/19 06:49:12;;;;;;;;;16.33;14.33;;;;;15.93;90.14;101403.28;5008866;28;45565;-58
2022/10/19 06:51:39;;;;;;;;;21.33;15.00;;;;;15.97;89.97;101403.94;5008896;28;46196;-66
2022/10/19 06:54:05;;;;;;;;;17.00;15.00;;;;;15.99;89.82;101402.88;5017505;28;45508;-59
2022/10/19 06:56:30;;;;;;;;;19.67;15.00;;;;;15.95;89.64;101387.09;5019363;28;45498;-56
2022/10/19 06:58:57;;;;;;;;;16.00;13.00;;;;;16.02;89.74;101404.53;5019313;28;45622;-61
2022/10/19 07:01:23;;;;;;;;;13.67;13.67;;;;;16.04;89.43;101407.97;5018968;28;46641;-60
2022/10/19 07:03:53;;;;;;;;;13.67;12.67;;;;;16.04;89.49;101408.81;5018601;28;45481;-61
2022/10/19 07:06:19;;;;;;;;;14.67;13.00;;;;;16.06;89.04;101417.63;5017600;28;45391;-59
2022/10/19 07:08:45;;;;;;;;;14.33;14.33;;;;;16.08;89.31;101409.47;5018771;28;45229;-61
2022/10/19 07:11:14;;;;;;;;;15.00;14.00;;;;;16.12;89.00;101405.63;5019719;28;46416;-58
2022/10/19 07:13:40;;;;;;;;;16.00;14.00;;;;;16.07;88.88;101386.28;5019457;28;45513;-60
2022/10/19 07:16:12;;;;;;;;;12.67;12.67;;;;;16.16;89.16;101401.78;5019051;28;45483;-58
2022/10/19 07:18:39;;;;;;;;;15.67;12.33;;;;;16.22;88.54;101404.03;5023734;28;45512;-56
2022/10/19 07:21:10;;;;;;;;;13.33;12.00;;;;;16.24;88.17;101388.69;5038186;28;45426;-57
2022/10/19 07:23:37;;;;;;;;;15.67;12.00;;;;;16.29;88.24;101386.59;5037155;28;45399;-57
2022/10/19 07:26:11;;;;;;;;;17.33;16.33;;;;;16.34;87.94;101386.25;5039131;28;45414;-58
2022/10/19 07:28:38;;;;;;;;;15.67;14.33;;;;;16.29;87.42;101370.47;5039047;28;45335;-58
2022/10/19 07:31:06;;;;;;;;;14.33;12.67;;;;;16.42;87.26;101397.34;5035385;28;45419;-60
2022/10/19 07:33:31;;;;;;;;;14.67;13.67;;;;;16.38;87.21;101380.56;5037476;28;45509;-56
2022/10/19 07:36:02;;;;;;;;;8.67;8.00;;;;;16.41;87.29;101380.38;5038237;28;45333;-58
2022/10/19 07:38:29;;;;;;;;;13.00;13.00;;;;;16.43;87.03;101382.97;5038317;28;45399;-58
2022/10/19 07:41:07;;;;;;;;;11.00;10.00;;;;;16.50;86.98;101385.09;5037915;28;46332;-56
2022/10/19 07:43:33;;;;;;;;;14.00;11.67;;;;;16.52;86.89;101391.22;5037708;28;45475;-56
2022/10/19 07:46:07;;;;;;;;;13.67;13.67;;;;;16.58;86.54;101383.75;5038092;28;45337;-56
2022/10/19 07:48:33;;;;;;;;;18.67;17.00;;;;;16.68;86.48;101392.91;5020846;28;45265;-56
2022/10/19 07:51:04;;;;;;;;;15.67;14.33;;;;;16.74;85.80;101392.47;5016784;28;46437;-57
2022/10/19 07:53:30;;;;;;;;;16.67;11.67;;;;;16.78;85.77;101380.56;5016283;28;45614;-57
2022/10/19 07:56:08;;;;;;;;;16.33;14.00;;;;;16.83;85.73;101375.75;5017696;28;45405;-58
2022/10/19 07:58:35;;;;;;;;;15.33;14.67;;;;;16.92;85.15;101374.22;5004017;28;45459;-64
2022/10/19 08:01:02;;;;;;;;;20.33;15.67;;;;;16.90;84.70;101371.63;5017411;28;45499;-67
2022/10/19 08:03:28;;;;;;;;;19.33;18.00;;;;;16.94;84.83;101378.53;5033718;28;45474;-58
2022/10/19 08:05:58;;;;;;;;;14.00;12.33;;;;;17.00;84.69;101387.97;5034857;28;45474;-57
2022/10/19 08:08:23;;;;;;;;;14.33;12.33;;;;;17.04;83.95;101378.72;5038060;28;45471;-58
2022/10/19 08:10:48;;;;;;;;;16.00;14.67;;;;;17.14;84.33;101379.81;5037643;28;46266;-60
2022/10/19 08:13:14;;;;;;;;;14.33;14.33;;;;;17.20;83.68;101376.69;5038095;28;45284;-56
2022/10/19 08:15:39;;;;;;;;;15.33;14.00;;;;;17.26;83.68;101372.69;5038089;28;45718;-58
2022/10/19 08:18:04;;;;;;;;;16.67;16.67;;;;;17.27;82.89;101374.41;5037991;28;45457;-58
2022/10/19 08:20:30;;;;;;;;;20.67;15.67;;;;;17.37;83.13;101370.09;5037607;28;45221;-57
2022/10/19 08:22:56;;;;;;;;;22.67;17.00;;;;;17.44;82.74;101382.13;5036818;28;45305;-59
2022/10/19 08:25:21;;;;;;;;;15.00;13.67;;;;;17.49;82.35;101374.59;5038024;28;45331;-58
2022/10/19 08:27:47;;;;;;;;;19.00;17.33;;;;;17.56;82.23;101375.84;5036736;28;45573;-57
2022/10/19 08:30:12;;;;;;;;;19.00;16.67;;;;;17.63;81.84;101373.59;5037241;28;45493;-56
2022/10/19 08:32:38;;;;;;;;;19.67;15.33;;;;;17.71;82.25;101367.66;5037362;28;45414;-58
2022/10/19 08:35:03;;;;;;;;;16.67;16.67;;;;;17.56;81.25;101326.56;5037456;28;45363;-57
2022/10/19 08:37:29;;;;;;;;;22.33;17.33;;;;;17.82;80.70;101354.28;5037844;28;45425;-58
2022/10/19 08:39:54;;;;;;;;;19.67;18.67;;;;;17.87;80.14;101346.75;5036835;28;45346;-58
2022/10/19 08:42:27;;;;;;;;;17.33;15.33;;;;;17.99;80.30;101351.19;5036590;28;45351;-59
2022/10/19 08:45:09;;;;;;;;;19.00;16.33;;;;;18.09;80.06;101357.59;5037113;28;45406;-57
2022/10/19 08:47:38;;;;;;;;;19.33;16.67;;;;;18.16;80.25;101358.00;5037024;28;45236;-58
2022/10/19 08:50:16;;;;;;;;;16.67;16.67;;;;;18.22;79.53;101355.69;5036984;28;45342;-57
2022/10/19 08:52:45;;;;;;;;;18.33;16.00;;;;;18.30;78.84;101354.25;5017973;28;45318;-57
2022/10/19 08:55:15;;;;;;;;;15.67;15.67;;;;;18.32;79.35;101352.31;5017338;28;45309;-58
2022/10/19 08:57:56;;;;;;;;;13.33;13.33;;;;;18.33;78.71;101348.63;5017074;28;45433;-57
2022/10/19 09:00:42;;;;;;;;;10.67;8.33;;;;;18.31;79.00;101347.88;5017110;28;46289;-56
2022/10/19 09:03:32;;;;;;;;;12.33;10.67;;;;;18.25;78.82;101351.94;5032504;28;45985;-56
2022/10/19 09:06:25;;;;;;;;;17.00;13.33;;;;;18.25;78.80;101358.16;5018057;28;45794;-57
2022/10/19 09:08:53;;;;;;;;;20.00;16.67;;;;;18.25;79.22;101360.00;5015110;28;45686;-58
2022/10/19 09:11:24;;;;;;;;;20.00;17.00;;;;;18.31;79.04;101355.97;5016254;28;46180;-56
2022/10/19 09:13:59;;;;;;;;;16.67;15.00;;;;;18.33;78.94;101354.00;5016366;28;45508;-59
2022/10/19 09:16:24;;;;;;;;;18.00;15.00;;;;;18.34;78.87;101339.56;5016337;28;45463;-57
2022/10/19 09:18:50;;;;;;;;;14.67;14.67;;;;;18.42;78.68;101345.25;5016837;28;45598;-56
2022/10/19 09:21:20;;;;;;;;;19.00;15.00;;;;;18.41;78.20;101335.44;5015173;28;46456;-57
2022/10/19 09:23:57;;;;;;;;;16.00;15.67;;;;;18.38;78.54;101324.91;5016595;28;45300;-57
2022/10/19 09:26:28;;;;;;;;;15.67;15.00;;;;;18.41;78.41;101325.53;5016676;28;45461;-60
2022/10/19 09:29:00;;;;;;;;;14.00;13.33;;;;;18.43;78.44;101330.78;5016166;28;45433;-56
2022/10/19 09:31:36;;;;;;;;;14.00;14.00;;;;;18.49;78.48;101333.00;5016421;28;45448;-58
2022/10/19 09:34:20;;;;;;;;;14.00;14.00;;;;;18.54;78.27;101320.03;5016460;28;45404;-57
2022/10/19 09:36:51;;;;;;;;;13.33;13.33;;;;;18.66;78.42;101321.81;5016174;28;45357;-58
2022/10/19 09:39:18;;;;;;;;;15.00;15.00;;;;;18.70;77.26;101320.59;5016418;28;45395;-57
2022/10/19 09:42:03;;;;;;;;;12.67;12.00;;;;;18.74;77.84;101322.06;5016204;28;45379;-57
2022/10/19 09:44:29;;;;;;;;;12.33;12.33;;;;;18.80;77.30;101320.72;5016067;28;45334;-57
2022/10/19 09:47:23;;;;;;;;;17.00;14.67;;;;;18.84;77.58;101316.81;5016225;28;45331;-57
2022/10/19 09:49:48;;;;;;;;;15.00;13.67;;;;;18.82;76.74;101303.44;5031672;28;45579;-57
2022/10/19 09:52:31;;;;;;;;;15.00;15.00;;;;;18.49;76.99;101238.72;5015088;28;45513;-58
2022/10/19 09:55:25;;;;;;;;;13.67;10.00;;;;;18.89;76.57;101303.84;5031259;28;45532;-57
2022/10/19 09:57:59;;;;;;;;;15.00;12.67;;;;;18.95;76.53;101303.34;5015599;28;45403;-58
2022/10/19 10:00:37;;;;;;;;;12.00;10.67;;;;;19.06;76.55;101313.25;5009756;28;45465;-57
2022/10/19 10:03:04;;;;;;;;;10.33;10.33;;;;;19.12;76.02;101313.63;4996283;28;46236;-57
2022/10/19 10:05:34;;;;;;;;;13.00;13.00;;;;;19.16;75.97;101306.16;5011452;28;45422;-59
2022/10/19 10:08:00;;;;;;;;;13.00;12.00;;;;;19.23;75.46;101299.28;4996505;28;45237;-59
2022/10/19 10:10:47;;;;;;;;;12.67;12.67;;;;;19.22;74.94;101289.47;4995332;28;45257;-58
2022/10/19 10:13:18;;;;;;;;;16.33;15.67;;;;;19.34;75.22;101291.16;4996369;28;45514;-59
2022/10/19 10:15:51;;;;;;;;;9.33;8.67;;;;;19.41;74.09;101289.69;5011176;28;45278;-58
2022/10/19 10:18:17;;;;;;;;;14.00;13.33;;;;;19.43;74.26;101285.03;4996139;28;45364;-57
2022/10/19 10:20:57;;;;;;;;;12.00;12.00;;;;;19.54;74.49;101292.25;5011556;28;45281;-58
2022/10/19 10:23:25;;;;;;;;;13.33;13.33;;;;;19.50;74.05;101273.72;5011737;28;47644;-58
2022/10/19 10:25:54;;;;;;;;;14.00;13.00;;;;;19.72;73.56;101297.97;4996007;28;45392;-59
2022/10/19 10:28:26;;;;;;;;;15.00;13.00;;;;;19.72;72.89;101288.03;4996159;28;45307;-60
2022/10/19 10:31:00;;;;;;;;;13.33;12.33;;;;;19.82;73.46;101282.72;4996088;28;45375;-59
2022/10/19 10:33:28;;;;;;;;;13.00;11.00;;;;;19.94;72.86;101279.00;4995846;28;46289;-58
2022/10/19 10:36:00;;;;;;;;;16.33;15.00;;;;;19.97;72.70;101270.63;5010767;28;45360;-57
2022/10/19 10:38:30;;;;;;;;;13.33;13.33;;;;;20.00;72.37;101248.78;4995695;28;45476;-61
2022/10/19 10:41:00;;;;;;;;;12.67;12.00;;;;;20.20;72.27;101255.19;4996060;28;45269;-60
2022/10/19 10:43:48;;;;;;;;;16.00;10.50;;;;;20.34;71.64;101256.69;4994528;28;45465;-59
2022/10/19 10:46:18;;;;;;;;;15.00;13.00;;;;;20.43;70.70;101255.03;4997001;28;45314;-56
2022/10/19 10:48:51;;;;;;;;;13.00;13.00;;;;;20.46;70.75;101234.03;4997018;28;45391;-59
2022/10/19 10:51:31;;;;;;;;;17.00;13.33;;;;;20.64;70.24;101241.50;5002726;28;45492;-57
2022/10/19 10:54:28;;;;;;;;;10.67;10.67;;;;;20.71;70.03;101232.75;5015247;28;45404;-58
2022/10/19 10:57:15;;;;;;;;;14.33;14.00;;;;;20.82;68.98;101234.47;5015157;28;45314;-58
2022/10/19 10:59:52;;;;;;;;;11.00;11.00;;;;;20.94;68.95;101227.09;5015136;28;45380;-59
2022/10/19 11:02:30;;;;;;;;;13.33;13.33;;;;;21.02;68.62;101230.84;5015309;28;45801;-57
2022/10/19 11:05:11;;;;;;;;;16.00;14.67;;;;;21.03;68.48;101207.38;5015930;28;45644;-58
2022/10/19 11:07:43;;;;;;;;;17.25;14.50;;;;;21.25;67.20;101227.94;5017527;28;45300;-59
2022/10/19 11:10:30;;;;;;;;;12.00;12.00;;;;;21.41;67.47;101225.56;5017604;28;45389;-57
2022/10/19 11:13:06;;;;;;;;;14.00;13.50;;;;;21.57;66.63;101215.03;5018945;28;45254;-57
2022/10/19 11:15:45;;;;;;;;;16.33;14.33;;;;;21.65;66.27;101206.19;5017318;28;45370;-59
2022/10/19 11:18:24;;;;;;;;;17.25;15.25;;;;;21.69;66.26;101208.47;5033855;28;45403;-58
2022/10/19 11:20:58;;;;;;;;;13.75;13.00;;;;;21.77;65.26;101196.94;5018165;28;45329;-58
2022/10/19 11:23:58;;;;;;;;;17.50;15.25;;;;;21.73;65.17;101199.06;5018688;28;45581;-58
2022/10/19 11:26:37;;;;;;;;;13.00;10.00;;;;;21.82;65.16;101188.38;5018034;28;45370;-56